Time;durP1;ratioP1;P1;durP2;ratioP2;P2;SDS_P1;SDS_P2;PMS_P1;PMS_P2;Temp;Humidity;BMP_temperature;BMP_pressure;BME280_temperature;BME280_humidity;BME280_pressure;Samples;Min_cycle;Max_cycle;Signal;HPM_P1;HPM_P2
2022/11/01 00:01:53;;;;;;;32.90;19.27;;;15.10;99.90;;;;;;7389040;19;20529;-83
2022/11/01 00:04:20;;;;;;;24.77;12.52;;;14.70;99.90;;;;;;7388374;19;20548;-81
2022/11/01 00:06:46;;;;;;;12.48;6.68;;;14.60;99.90;;;;;;7389130;19;20142;-82
2022/11/01 00:09:12;;;;;;;12.55;6.70;;;14.80;99.90;;;;;;7389958;19;20138;-83
2022/11/01 00:11:38;;;;;;;15.55;10.40;;;15.00;99.90;;;;;;7389421;19;20156;-83
2022/11/01 00:14:04;;;;;;;107.47;60.03;;;15.00;99.90;;;;;;7390089;19;20250;-83
2022/11/01 00:16:30;;;;;;;164.48;95.70;;;15.00;99.90;;;;;;7389972;19;20158;-83
2022/11/01 00:18:56;;;;;;;36.30;22.63;;;14.70;99.90;;;;;;7387087;19;20179;-81
2022/11/01 00:21:21;;;;;;;11.27;6.57;;;14.80;99.90;;;;;;7389950;19;20205;-80
2022/11/01 00:23:47;;;;;;;11.07;6.75;;;14.90;99.90;;;;;;7390115;19;20143;-83
2022/11/01 00:26:19;;;;;;;11.23;6.95;;;15.10;99.90;;;;;;7390270;19;20154;-81
2022/11/01 00:28:45;;;;;;;11.60;6.13;;;15.00;99.90;;;;;;7388542;19;20134;-82
2022/11/01 00:31:12;;;;;;;10.13;6.60;;;15.20;99.90;;;;;;7388245;19;20198;-80
2022/11/01 00:33:38;;;;;;;12.77;7.10;;;15.30;99.90;;;;;;7390457;19;20592;-80
2022/11/01 00:36:05;;;;;;;16.92;8.05;;;15.30;99.90;;;;;;7389222;19;20159;-81
2022/11/01 00:38:31;;;;;;;9.27;6.47;;;15.20;99.90;;;;;;7389939;19;20134;-84
2022/11/01 00:40:57;;;;;;;13.75;8.13;;;15.00;99.90;;;;;;7387914;19;20131;-81
2022/11/01 00:43:22;;;;;;;18.00;9.30;;;15.00;99.90;;;;;;7385084;19;20134;-82
2022/11/01 00:45:48;;;;;;;10.95;6.97;;;14.90;99.90;;;;;;7389537;19;20149;-81
2022/11/01 00:48:14;;;;;;;12.35;6.78;;;15.00;99.90;;;;;;7386768;19;20138;-81
2022/11/01 00:50:40;;;;;;;14.05;8.75;;;15.10;99.90;;;;;;7388749;19;20611;-79
2022/11/01 00:53:08;;;;;;;17.10;8.25;;;15.10;99.90;;;;;;7387450;19;20150;-83
2022/11/01 00:55:33;;;;;;;9.38;6.03;;;15.10;99.90;;;;;;7389167;19;20138;-80
2022/11/01 00:57:59;;;;;;;12.48;6.63;;;15.10;99.90;;;;;;7386772;19;20150;-82
2022/11/01 01:00:25;;;;;;;10.88;6.45;;;15.10;99.90;;;;;;7388938;19;20703;-81
2022/11/01 01:02:51;;;;;;;12.02;6.65;;;15.10;99.90;;;;;;7386829;19;20151;-82
2022/11/01 01:05:17;;;;;;;10.27;6.20;;;15.10;99.90;;;;;;7388633;19;20146;-81
2022/11/01 01:07:43;;;;;;;28.35;15.93;;;15.00;99.90;;;;;;7390664;19;20145;-81
2022/11/01 01:10:12;;;;;;;26.90;13.40;;;14.70;99.90;;;;;;7389538;19;20592;-81
2022/11/01 01:12:38;;;;;;;50.72;25.77;;;14.80;99.90;;;;;;7384665;19;20135;-83
2022/11/01 01:15:04;;;;;;;49.72;24.85;;;14.80;99.90;;;;;;7386909;19;20211;-82
2022/11/01 01:17:31;;;;;;;164.90;85.68;;;14.90;99.90;;;;;;7387513;19;20153;-80
2022/11/01 01:19:56;;;;;;;62.35;33.10;;;14.80;99.90;;;;;;7385936;19;20181;-82
2022/11/01 01:22:22;;;;;;;38.90;22.48;;;14.80;99.90;;;;;;7387629;19;20150;-83
2022/11/01 01:24:48;;;;;;;29.30;17.73;;;14.90;99.90;;;;;;7387679;19;20143;-83
2022/11/01 01:27:15;;;;;;;58.05;30.48;;;15.00;99.90;;;;;;7388394;19;20134;-81
2022/11/01 01:29:42;;;;;;;39.75;21.08;;;14.90;99.90;;;;;;7386016;19;20150;-82
2022/11/01 01:32:11;;;;;;;36.35;18.70;;;15.00;99.90;;;;;;7388935;19;20496;-82
2022/11/01 01:34:37;;;;;;;46.05;22.83;;;14.70;99.90;;;;;;7388180;19;20600;-82
2022/11/01 01:37:03;;;;;;;52.17;26.40;;;14.50;99.90;;;;;;7387566;19;20161;-82
2022/11/01 01:39:28;;;;;;;37.03;17.35;;;14.70;99.90;;;;;;7385130;19;20202;-82
2022/11/01 01:41:54;;;;;;;28.17;12.35;;;14.60;99.90;;;;;;7388436;19;20162;-83
2022/11/01 01:44:51;;;;;;;11.88;6.82;;;14.80;99.90;;;;;;7390839;19;20146;-78
2022/11/01 01:47:46;;;;;;;13.77;7.15;;;14.90;99.90;;;;;;7393513;19;20158;-83
2022/11/01 01:50:12;;;;;;;40.33;19.23;;;14.70;99.90;;;;;;7391539;19;20154;-82
2022/11/01 01:52:44;;;;;;;47.13;25.88;;;14.40;99.90;;;;;;7393769;19;20150;-82
2022/11/01 01:55:12;;;;;;;32.25;18.13;;;14.60;99.90;;;;;;7393757;19;20633;-81
2022/11/01 01:57:39;;;;;;;24.70;13.82;;;14.70;99.90;;;;;;7393593;19;20135;-82
2022/11/01 02:00:06;;;;;;;13.20;7.18;;;14.80;99.90;;;;;;7393124;19;20928;-82
2022/11/01 02:02:32;;;;;;;9.00;6.22;;;15.00;99.90;;;;;;7384816;19;20668;-81
2022/11/01 02:05:05;;;;;;;9.77;7.00;;;15.10;99.90;;;;;;7394067;19;20676;-83
2022/11/01 02:07:31;;;;;;;13.77;6.43;;;14.80;99.90;;;;;;7393633;19;20146;-82
2022/11/01 02:09:56;;;;;;;11.90;5.85;;;15.00;99.90;;;;;;7393669;19;20496;-83
2022/11/01 02:12:29;;;;;;;9.60;6.20;;;15.00;99.90;;;;;;7394194;19;20174;-83
2022/11/01 02:14:55;;;;;;;9.93;6.07;;;15.00;99.90;;;;;;7395368;19;20210;-80
2022/11/01 02:17:34;;;;;;;10.32;6.03;;;15.10;99.90;;;;;;7395115;19;20224;-82
2022/11/01 02:20:24;;;;;;;11.40;6.20;;;15.00;99.90;;;;;;7391645;19;20177;-80
2022/11/01 02:23:16;;;;;;;10.23;5.80;;;15.20;99.90;;;;;;7392651;19;20135;-83
2022/11/01 02:26:11;;;;;;;11.18;6.38;;;15.10;99.90;;;;;;7393762;19;20146;-81
2022/11/01 02:28:55;;;;;;;8.85;6.13;;;15.10;99.90;;;;;;7390853;19;20634;-83
2022/11/01 02:31:27;;;;;;;10.07;6.43;;;15.10;99.90;;;;;;7393247;19;20159;-82
2022/11/01 02:34:06;;;;;;;10.25;6.15;;;15.00;99.90;;;;;;7392668;19;20169;-81
2022/11/01 02:36:34;;;;;;;16.70;9.52;;;15.30;99.90;;;;;;7392181;19;20142;-83
2022/11/01 02:39:09;;;;;;;10.43;7.22;;;15.10;99.90;;;;;;7393797;19;20135;-82
2022/11/01 02:41:43;;;;;;;11.23;6.82;;;15.20;99.90;;;;;;7395259;19;20141;-82
2022/11/01 02:44:33;;;;;;;9.88;6.20;;;15.20;99.90;;;;;;7392214;19;20146;-83
2022/11/01 02:47:01;;;;;;;12.38;7.35;;;15.20;99.90;;;;;;7391801;19;20154;-82
2022/11/01 02:49:45;;;;;;;13.10;8.10;;;15.20;99.90;;;;;;7392335;19;20167;-81
2022/11/01 02:52:16;;;;;;;9.63;5.70;;;15.10;99.90;;;;;;7393169;19;20210;-82
2022/11/01 02:54:55;;;;;;;13.52;6.93;;;15.30;99.90;;;;;;7392002;19;20151;-79
2022/11/01 02:57:39;;;;;;;11.30;6.68;;;15.00;99.90;;;;;;7390004;19;20164;-82
2022/11/01 03:00:28;;;;;;;14.75;8.07;;;14.60;99.90;;;;;;7393148;19;20141;-82
2022/11/01 03:03:03;;;;;;;12.55;6.30;;;14.80;99.90;;;;;;7391101;19;20147;-82
2022/11/01 03:05:48;;;;;;;18.58;9.05;;;14.90;99.90;;;;;;7388057;19;20138;-83
2022/11/01 03:08:19;;;;;;;30.17;16.35;;;15.10;99.90;;;;;;7391161;19;20159;-83
2022/11/01 03:11:08;;;;;;;12.27;7.30;;;14.90;99.90;;;;;;7392562;19;20131;-84
2022/11/01 03:13:52;;;;;;;9.55;5.88;;;15.00;99.90;;;;;;7392989;19;20464;-83
2022/11/01 03:16:47;;;;;;;13.63;6.97;;;15.10;99.90;;;;;;7392788;19;20135;-73
2022/11/01 03:19:39;;;;;;;8.63;5.50;;;15.10;99.90;;;;;;7388580;19;20615;-73
2022/11/01 03:22:29;;;;;;;10.68;7.03;;;15.10;99.90;;;;;;7390041;19;20583;-73
2022/11/01 03:25:38;;;;;;;11.95;6.25;;;15.20;99.90;;;;;;7390708;19;20157;-74
2022/11/01 03:27:58;;;;;;;8.93;5.93;;;15.20;99.90;;;;;;7393203;19;20579;-72
2022/11/01 03:30:26;;;;;;;8.90;5.50;;;15.10;99.90;;;;;;7392518;19;20552;-72
2022/11/01 03:32:55;;;;;;;12.20;5.55;;;14.80;99.90;;;;;;7393840;19;20141;-73
2022/11/01 03:35:25;;;;;;;10.20;5.93;;;14.90;99.90;;;;;;7392651;19;20134;-74
2022/11/01 03:37:53;;;;;;;12.18;6.43;;;15.00;99.90;;;;;;7394202;19;20606;-82
2022/11/01 03:40:23;;;;;;;13.85;6.68;;;14.80;99.90;;;;;;7393915;19;20667;-83
2022/11/01 03:42:51;;;;;;;13.45;8.00;;;15.00;99.90;;;;;;7390646;19;20149;-82
2022/11/01 03:45:23;;;;;;;10.93;6.70;;;14.80;99.90;;;;;;7394382;19;20624;-80
2022/11/01 03:47:49;;;;;;;9.23;5.55;;;15.00;99.90;;;;;;7392617;19;20130;-79
2022/11/01 03:50:22;;;;;;;9.65;5.35;;;15.10;99.90;;;;;;7400048;19;20227;-81
2022/11/01 03:52:48;;;;;;;7.93;5.65;;;15.10;99.90;;;;;;7398293;19;20155;-81
2022/11/01 03:55:19;;;;;;;9.50;5.53;;;15.00;99.90;;;;;;7395342;19;20138;-81
2022/11/01 03:57:50;;;;;;;8.52;5.50;;;15.20;99.90;;;;;;7393591;19;20217;-80
2022/11/01 04:00:37;;;;;;;9.48;6.32;;;15.30;99.90;;;;;;7390715;19;20139;-77
2022/11/01 04:03:04;;;;;;;10.65;5.93;;;15.40;99.90;;;;;;7390517;19;20616;-80
2022/11/01 04:05:32;;;;;;;10.27;5.38;;;15.30;99.90;;;;;;7389007;19;20154;-80
2022/11/01 04:07:58;;;;;;;10.52;4.63;;;15.20;99.90;;;;;;7388628;19;20508;-81
2022/11/01 04:10:25;;;;;;;10.02;4.50;;;14.90;99.90;;;;;;7389322;19;20154;-81
2022/11/01 04:12:52;;;;;;;8.73;4.80;;;15.00;99.90;;;;;;7388608;19;20150;-82
2022/11/01 04:21:14;;;;;;;9.82;5.53;;;15.20;99.90;;;;;;7389222;19;20464;-82
2022/11/01 04:23:41;;;;;;;9.43;5.18;;;15.30;99.90;;;;;;7386273;19;20150;-82
2022/11/01 04:26:09;;;;;;;7.95;5.13;;;15.40;99.90;;;;;;7389516;19;20139;-81
2022/11/01 04:28:35;;;;;;;8.63;5.47;;;15.40;99.90;;;;;;7389673;19;20131;-84
2022/11/01 04:31:01;;;;;;;11.40;5.80;;;15.40;99.90;;;;;;7388963;19;20142;-82
2022/11/01 04:33:27;;;;;;;7.82;5.25;;;15.30;99.90;;;;;;7387865;19;20630;-82
2022/11/01 04:35:52;;;;;;;9.88;5.55;;;15.20;99.90;;;;;;7389146;19;20142;-81
2022/11/01 04:38:18;;;;;;;7.88;4.95;;;15.30;99.90;;;;;;7388971;19;20779;-82
2022/11/01 04:40:44;;;;;;;11.02;5.75;;;15.30;99.90;;;;;;7388289;19;20138;-80
2022/11/01 04:43:11;;;;;;;8.93;5.72;;;15.50;99.90;;;;;;7386618;19;20145;-81
2022/11/01 04:45:37;;;;;;;8.02;4.88;;;15.20;99.90;;;;;;7389219;19;20150;-82
2022/11/01 04:48:11;;;;;;;10.75;5.03;;;15.20;99.90;;;;;;7389439;19;20151;-83
2022/11/01 04:50:37;;;;;;;17.73;11.80;;;15.20;99.90;;;;;;7389080;19;20133;-82
2022/11/01 04:53:03;;;;;;;13.88;8.77;;;15.30;99.90;;;;;;7387727;19;20153;-81
2022/11/01 04:55:29;;;;;;;13.73;6.30;;;15.20;99.90;;;;;;7389573;19;20134;-80
2022/11/01 04:57:55;;;;;;;10.85;4.88;;;15.30;99.90;;;;;;7389844;19;20202;-80
2022/11/01 05:00:23;;;;;;;9.23;5.20;;;15.20;99.90;;;;;;7389272;19;20488;-82
2022/11/01 05:02:49;;;;;;;8.27;5.10;;;15.30;99.90;;;;;;7387037;19;20603;-81
2022/11/01 05:05:16;;;;;;;9.10;5.07;;;15.50;99.90;;;;;;7387947;19;20156;-81
2022/11/01 05:07:42;;;;;;;6.63;3.83;;;15.40;99.90;;;;;;7387461;19;20145;-83
2022/11/01 05:10:08;;;;;;;4.75;3.58;;;15.30;99.90;;;;;;7385834;19;20616;-82
2022/11/01 05:12:35;;;;;;;4.32;2.33;;;15.30;99.90;;;;;;7390604;19;20142;-82
2022/11/01 05:15:00;;;;;;;3.25;1.80;;;15.40;99.90;;;;;;7388252;19;20135;-80
2022/11/01 05:17:26;;;;;;;4.38;1.75;;;15.70;99.90;;;;;;7390149;19;20166;-82
2022/11/01 05:19:52;;;;;;;3.55;1.77;;;15.60;99.90;;;;;;7392478;19;20150;-82
2022/11/01 05:22:19;;;;;;;3.55;2.00;;;15.70;99.90;;;;;;7393409;19;20131;-81
2022/11/01 05:24:45;;;;;;;3.78;1.70;;;15.80;99.90;;;;;;7394948;19;20157;-81
2022/11/01 05:27:11;;;;;;;5.75;2.40;;;15.80;99.90;;;;;;7394309;19;20135;-80
2022/11/01 05:29:36;;;;;;;4.25;1.80;;;15.80;99.90;;;;;;7394152;19;20135;-81
2022/11/01 05:32:02;;;;;;;2.90;1.73;;;15.80;99.90;;;;;;7395206;19;20535;-81
2022/11/01 05:34:28;;;;;;;4.07;1.65;;;15.90;99.90;;;;;;7392535;19;20615;-82
2022/11/01 05:36:54;;;;;;;4.10;1.92;;;15.90;99.90;;;;;;7395449;19;20127;-83
2022/11/01 05:39:20;;;;;;;3.53;1.45;;;15.90;99.90;;;;;;7394880;19;20140;-82
2022/11/01 05:41:45;;;;;;;2.70;1.50;;;15.90;99.90;;;;;;7394434;19;20138;-82
2022/11/01 05:44:11;;;;;;;2.70;1.40;;;16.00;99.90;;;;;;7392919;19;20138;-82
2022/11/01 05:46:37;;;;;;;4.28;1.27;;;16.00;99.90;;;;;;7396405;19;20139;-83
2022/11/01 05:49:03;;;;;;;2.63;1.10;;;16.20;99.90;;;;;;7394125;19;20643;-81
2022/11/01 05:51:28;;;;;;;6.50;1.55;;;16.20;99.90;;;;;;7394826;19;20673;-82
2022/11/01 05:53:54;;;;;;;1.50;1.10;;;16.20;99.90;;;;;;7394349;19;21071;-83
2022/11/01 05:56:20;;;;;;;1.92;1.33;;;16.20;99.90;;;;;;7392869;19;20190;-81
2022/11/01 05:58:46;;;;;;;2.65;1.23;;;16.10;99.90;;;;;;7392418;19;20214;-81
2022/11/01 06:01:12;;;;;;;3.92;1.17;;;16.20;99.90;;;;;;7394945;19;20149;-81
2022/11/01 06:03:38;;;;;;;3.20;1.50;;;16.10;99.90;;;;;;7391437;19;20150;-80
2022/11/01 06:06:04;;;;;;;4.13;1.30;;;16.10;99.90;;;;;;7394895;19;20139;-80
2022/11/01 06:08:30;;;;;;;3.45;1.20;;;16.00;99.90;;;;;;7393453;19;20139;-81
2022/11/01 06:11:06;;;;;;;2.47;1.00;;;16.00;99.90;;;;;;7395417;19;20198;-82
2022/11/01 06:13:32;;;;;;;1.38;1.25;;;16.00;99.90;;;;;;7395713;19;20160;-80
2022/11/01 06:16:00;;;;;;;3.83;1.40;;;15.90;99.90;;;;;;7394323;19;20151;-82
2022/11/01 06:18:26;;;;;;;1.52;1.00;;;16.00;99.90;;;;;;7394218;19;20596;-82
2022/11/01 06:20:52;;;;;;;2.00;1.50;;;16.00;99.90;;;;;;7391881;19;20155;-79
2022/11/01 06:23:18;;;;;;;2.50;1.40;;;16.00;99.90;;;;;;7393201;19;20206;-81
2022/11/01 06:25:44;;;;;;;2.70;1.25;;;16.00;99.90;;;;;;7393754;19;20166;-81
2022/11/01 06:28:10;;;;;;;2.75;1.40;;;16.00;99.90;;;;;;7391872;19;20150;-80
2022/11/01 06:30:37;;;;;;;3.38;1.30;;;15.80;99.90;;;;;;7391934;19;20206;-82
2022/11/01 06:33:05;;;;;;;2.65;1.20;;;15.80;99.90;;;;;;7394681;19;20143;-82
2022/11/01 06:35:32;;;;;;;3.50;1.48;;;15.90;99.90;;;;;;7392301;19;20169;-83
2022/11/01 06:38:02;;;;;;;2.03;1.77;;;15.90;99.90;;;;;;7393915;19;20134;-81
2022/11/01 06:40:28;;;;;;;2.70;1.20;;;15.90;99.90;;;;;;7392361;19;20163;-82
2022/11/01 06:43:01;;;;;;;2.45;1.40;;;16.00;99.90;;;;;;7391503;19;20501;-81
2022/11/01 06:45:28;;;;;;;2.90;1.20;;;16.00;99.90;;;;;;7393338;19;20592;-81
2022/11/01 06:47:54;;;;;;;1.42;0.73;;;15.90;99.90;;;;;;7391770;19;20143;-80
2022/11/01 06:50:21;;;;;;;2.45;1.35;;;15.80;99.90;;;;;;7392775;19;20629;-80
2022/11/01 06:52:47;;;;;;;2.03;1.10;;;16.10;99.90;;;;;;7393540;19;20154;-82
2022/11/01 06:55:13;;;;;;;4.13;1.23;;;16.30;99.90;;;;;;7393884;19;20217;-82
2022/11/01 06:57:39;;;;;;;2.33;1.25;;;16.20;99.90;;;;;;7393380;19;20170;-81
2022/11/01 07:00:05;;;;;;;1.38;1.08;;;16.10;99.90;;;;;;7392107;19;20159;-82
2022/11/01 07:02:31;;;;;;;3.67;0.90;;;16.20;99.90;;;;;;7390607;19;20167;-82
2022/11/01 07:04:57;;;;;;;1.70;1.08;;;16.30;99.90;;;;;;7393365;19;20138;-82
2022/11/01 07:07:23;;;;;;;1.10;0.90;;;16.30;99.90;;;;;;7394115;19;20143;-80
2022/11/01 07:09:49;;;;;;;2.90;1.00;;;16.40;99.90;;;;;;7392315;19;20146;-80
2022/11/01 07:12:15;;;;;;;0.75;0.70;;;16.40;99.90;;;;;;7393691;19;20154;-79
2022/11/01 07:14:40;;;;;;;2.10;1.10;;;16.30;99.90;;;;;;7395398;19;20218;-82
2022/11/01 07:17:07;;;;;;;1.85;0.90;;;16.50;99.90;;;;;;7394034;19;20174;-82
2022/11/01 07:19:33;;;;;;;1.63;1.17;;;16.50;99.90;;;;;;7392122;19;20171;-81
2022/11/01 07:21:59;;;;;;;2.15;1.20;;;16.50;99.90;;;;;;7396112;19;20143;-81
2022/11/01 07:24:24;;;;;;;1.30;1.20;;;16.50;99.90;;;;;;7391406;19;20158;-80
2022/11/01 07:26:50;;;;;;;4.80;1.77;;;16.50;99.90;;;;;;7395698;19;20142;-79
2022/11/01 07:29:16;;;;;;;2.17;1.10;;;16.40;99.90;;;;;;7396373;19;20179;-83
2022/11/01 07:31:42;;;;;;;1.30;1.10;;;16.40;99.90;;;;;;7395517;19;20135;-83
2022/11/01 07:34:08;;;;;;;3.15;1.13;;;16.40;99.90;;;;;;7395486;19;20138;-82
2022/11/01 07:36:33;;;;;;;2.50;1.17;;;16.30;99.90;;;;;;7395210;19;20155;-83
2022/11/01 07:38:59;;;;;;;1.20;0.90;;;16.20;99.90;;;;;;7394032;19;20178;-82
2022/11/01 07:41:25;;;;;;;2.72;1.10;;;16.20;99.90;;;;;;7394359;19;20130;-82
2022/11/01 07:43:52;;;;;;;3.35;2.15;;;16.50;99.90;;;;;;7393849;19;20162;-80
2022/11/01 07:46:17;;;;;;;5.07;2.60;;;16.60;99.90;;;;;;7395737;19;20494;-80
2022/11/01 07:48:44;;;;;;;3.33;2.42;;;16.70;99.90;;;;;;7396441;19;20130;-82
2022/11/01 07:51:10;;;;;;;2.70;2.30;;;16.60;99.90;;;;;;7395574;19;20495;-83
2022/11/01 07:53:36;;;;;;;2.45;2.05;;;16.50;99.90;;;;;;7396354;19;20130;-82
2022/11/01 07:56:04;;;;;;;2.42;1.48;;;16.40;99.90;;;;;;7391835;19;20159;-83
2022/11/01 07:58:29;;;;;;;3.67;1.27;;;16.50;99.90;;;;;;7398636;19;20178;-79
2022/11/01 08:00:55;;;;;;;1.45;0.90;;;16.40;99.90;;;;;;7399997;19;20169;-83
2022/11/01 08:03:23;;;;;;;2.95;1.00;;;16.40;99.90;;;;;;7406228;19;20146;-82
2022/11/01 08:05:51;;;;;;;1.10;0.90;;;16.30;99.90;;;;;;7421363;19;20139;-82
2022/11/01 08:08:19;;;;;;;1.50;0.88;;;16.30;99.90;;;;;;7417749;19;20178;-80
2022/11/01 08:10:46;;;;;;;0.90;0.80;;;16.40;99.90;;;;;;7415099;19;20147;-81
2022/11/01 08:13:21;;;;;;;1.77;0.82;;;16.40;99.90;;;;;;7413774;19;20139;-83
2022/11/01 08:15:48;;;;;;;0.52;0.45;;;16.50;99.90;;;;;;7414727;19;20138;-80
2022/11/01 08:18:15;;;;;;;1.20;0.40;;;16.40;99.90;;;;;;7409495;19;20157;-85
2022/11/01 08:20:42;;;;;;;1.05;0.55;;;16.50;99.90;;;;;;7398829;19;20190;-85
2022/11/01 08:23:09;;;;;;;0.93;0.50;;;16.70;99.90;;;;;;7395672;19;20596;-84
2022/11/01 08:25:35;;;;;;;1.10;0.70;;;16.70;99.90;;;;;;7397524;19;20138;-81
2022/11/01 08:28:04;;;;;;;1.05;0.70;;;16.80;99.90;;;;;;7394094;19;20169;-82
2022/11/01 08:30:30;;;;;;;0.68;0.63;;;16.70;99.90;;;;;;7395543;19;20166;-83
2022/11/01 08:33:00;;;;;;;1.20;1.00;;;16.90;99.90;;;;;;7392265;19;20177;-80
2022/11/01 08:35:26;;;;;;;0.75;0.60;;;16.80;99.90;;;;;;7393562;19;20165;-81
2022/11/01 08:37:52;;;;;;;2.15;0.60;;;16.90;99.90;;;;;;7392054;19;20545;-82
2022/11/01 08:40:19;;;;;;;1.23;0.60;;;16.90;99.90;;;;;;7388297;19;20412;-81
2022/11/01 08:42:46;;;;;;;2.15;0.60;;;16.90;99.90;;;;;;7391594;19;20172;-82
2022/11/01 08:45:12;;;;;;;2.45;1.10;;;16.90;99.90;;;;;;7393556;19;20218;-80
2022/11/01 08:47:40;;;;;;;1.50;0.90;;;17.00;99.90;;;;;;7393850;19;20151;-81
2022/11/01 08:50:08;;;;;;;0.55;0.50;;;17.00;99.90;;;;;;7392510;19;20146;-80
2022/11/01 08:52:34;;;;;;;2.08;1.20;;;17.00;99.90;;;;;;7389536;19;20493;-81
2022/11/01 08:55:00;;;;;;;1.83;1.10;;;17.00;99.90;;;;;;7393717;19;20146;-81
2022/11/01 08:57:26;;;;;;;0.73;0.70;;;17.00;99.90;;;;;;7392413;19;20161;-82
2022/11/01 08:59:51;;;;;;;0.52;0.50;;;17.00;99.90;;;;;;7389035;19;20138;-79
2022/11/01 09:02:17;;;;;;;1.02;0.63;;;17.10;99.90;;;;;;7389446;19;20150;-81
2022/11/01 09:04:43;;;;;;;1.27;0.68;;;17.10;99.90;;;;;;7376225;19;20147;-80
2022/11/01 09:07:09;;;;;;;0.95;0.60;;;17.10;99.90;;;;;;7388926;19;20135;-84
2022/11/01 09:09:35;;;;;;;0.93;0.73;;;17.20;99.90;;;;;;7387023;19;20639;-84
2022/11/01 09:12:03;;;;;;;0.50;0.50;;;17.20;99.90;;;;;;7389799;19;20135;-82
2022/11/01 09:14:29;;;;;;;1.13;0.98;;;17.20;99.90;;;;;;7391035;19;20615;-86
2022/11/01 09:16:55;;;;;;;0.88;0.70;;;17.20;99.90;;;;;;7389306;19;20206;-86
2022/11/01 09:19:21;;;;;;;0.80;0.80;;;17.20;99.90;;;;;;7388877;19;20253;-85
2022/11/01 09:21:47;;;;;;;1.85;0.88;;;17.20;99.90;;;;;;7389105;19;20583;-85
2022/11/01 09:24:16;;;;;;;0.60;0.60;;;17.20;99.90;;;;;;7388048;19;20144;-84
2022/11/01 09:26:42;;;;;;;2.35;0.60;;;17.20;99.90;;;;;;7389278;19;20610;-85
2022/11/01 09:29:11;;;;;;;0.68;0.50;;;17.20;99.90;;;;;;7388161;19;20595;-85
2022/11/01 09:31:37;;;;;;;0.98;0.52;;;17.30;99.90;;;;;;7389730;19;20151;-85
2022/11/01 09:34:03;;;;;;;1.75;0.70;;;17.30;99.90;;;;;;7392608;19;20157;-86
2022/11/01 09:36:29;;;;;;;1.52;0.80;;;17.30;99.90;;;;;;7387157;19;20139;-86
2022/11/01 09:38:56;;;;;;;0.77;0.70;;;17.40;99.90;;;;;;7393280;19;20122;-85
2022/11/01 09:41:31;;;;;;;1.40;0.60;;;17.30;99.90;;;;;;7389745;19;20147;-86
2022/11/01 09:44:00;;;;;;;1.30;0.60;;;17.60;99.90;;;;;;7387743;19;20158;-85
2022/11/01 09:46:30;;;;;;;1.30;0.52;;;17.70;99.90;;;;;;7390970;19;20605;-85
2022/11/01 09:49:00;;;;;;;0.93;0.77;;;18.00;99.90;;;;;;7389172;19;20576;-85
2022/11/01 09:51:27;;;;;;;0.77;0.50;;;18.10;99.90;;;;;;7390099;19;20620;-84
2022/11/01 09:53:56;;;;;;;0.47;0.47;;;18.10;99.90;;;;;;7389686;19;20172;-82
2022/11/01 09:56:22;;;;;;;0.70;0.60;;;18.20;99.90;;;;;;7390731;19;20155;-81
2022/11/01 09:59:21;;;;;;;1.80;0.60;;;18.30;99.90;;;;;;7389910;19;20150;-82
2022/11/01 10:02:18;;;;;;;1.40;0.55;;;18.40;99.90;;;;;;7387337;19;20395;-84
2022/11/01 10:04:59;;;;;;;1.15;0.80;;;18.70;99.90;;;;;;7386803;19;20177;-83
2022/11/01 10:08:04;;;;;;;1.50;0.60;;;18.70;99.90;;;;;;7397195;19;20142;-85
2022/11/01 10:10:45;;;;;;;0.90;0.63;;;18.60;99.90;;;;;;7394684;19;20173;-83
2022/11/01 10:13:35;;;;;;;0.60;0.52;;;18.70;99.90;;;;;;7393614;19;20138;-84
2022/11/01 10:16:20;;;;;;;0.50;0.50;;;18.80;99.90;;;;;;7396656;19;20138;-83
2022/11/01 10:19:13;;;;;;;1.20;0.50;;;18.80;99.90;;;;;;7393519;19;20142;-83
2022/11/01 10:21:51;;;;;;;0.43;0.43;;;18.80;99.90;;;;;;7394803;19;20138;-84
2022/11/01 10:24:46;;;;;;;0.50;0.50;;;18.80;99.90;;;;;;7394673;19;20173;-83
2022/11/01 10:27:17;;;;;;;2.25;0.95;;;18.90;99.90;;;;;;7395072;19;20141;-82
2022/11/01 10:30:00;;;;;;;0.50;0.50;;;18.80;99.90;;;;;;7393524;19;20462;-81
2022/11/01 10:32:47;;;;;;;1.45;0.60;;;18.90;99.90;;;;;;7390939;19;20474;-85
2022/11/01 10:35:24;;;;;;;1.20;0.57;;;18.80;99.90;;;;;;7391236;19;20142;-85
2022/11/01 10:37:52;;;;;;;0.50;0.40;;;18.70;99.90;;;;;;7391903;19;20527;-85
2022/11/01 10:40:24;;;;;;;1.85;0.60;;;18.80;99.90;;;;;;7394719;19;20158;-82
2022/11/01 10:42:50;;;;;;;1.20;0.70;;;18.80;99.90;;;;;;7393982;19;20157;-84
2022/11/01 10:45:18;;;;;;;0.95;0.60;;;18.80;99.90;;;;;;7394069;19;20139;-83
2022/11/01 10:47:47;;;;;;;3.70;0.80;;;18.80;99.90;;;;;;7396033;19;20635;-84
2022/11/01 10:50:16;;;;;;;2.38;0.70;;;18.90;99.90;;;;;;7395129;19;20138;-81
2022/11/01 10:52:48;;;;;;;0.85;0.50;;;19.00;99.90;;;;;;7392806;19;20498;-82
2022/11/01 10:55:29;;;;;;;2.30;0.68;;;18.90;99.90;;;;;;7392990;19;20552;-83
2022/11/01 10:58:05;;;;;;;0.85;0.60;;;19.10;99.90;;;;;;7394724;19;20148;-81
2022/11/01 11:00:35;;;;;;;0.85;0.55;;;19.00;99.90;;;;;;7393193;19;20138;-82
2022/11/01 11:03:22;;;;;;;1.42;0.77;;;19.10;99.90;;;;;;7393385;19;20614;-83
2022/11/01 11:05:50;;;;;;;3.78;0.95;;;18.90;99.90;;;;;;7392228;19;20138;-84
2022/11/01 11:08:19;;;;;;;0.70;0.60;;;18.70;99.90;;;;;;7391390;19;20146;-85
2022/11/01 11:10:45;;;;;;;0.70;0.60;;;18.80;99.90;;;;;;7392739;19;20161;-82
2022/11/01 11:13:14;;;;;;;2.72;0.70;;;18.70;99.90;;;;;;7393672;19;20135;-78
2022/11/01 11:16:01;;;;;;;1.45;0.77;;;18.70;99.90;;;;;;7391063;19;20145;-81
2022/11/01 11:18:30;;;;;;;1.85;0.60;;;18.70;99.90;;;;;;7389574;19;20142;-79
2022/11/01 11:21:04;;;;;;;0.55;0.52;;;18.70;99.90;;;;;;7386360;19;20189;-83
2022/11/01 11:23:35;;;;;;;2.35;0.50;;;18.60;99.90;;;;;;7391702;19;20135;-81
2022/11/01 11:26:03;;;;;;;2.35;0.90;;;18.60;99.90;;;;;;7394119;19;20538;-83
2022/11/01 11:28:37;;;;;;;2.85;0.80;;;18.60;99.90;;;;;;7393073;19;20158;-84
2022/11/01 11:31:18;;;;;;;1.55;0.52;;;18.70;99.90;;;;;;7392269;19;20138;-84
2022/11/01 11:33:55;;;;;;;2.75;0.57;;;18.80;99.90;;;;;;7393043;19;20149;-83
2022/11/01 11:36:36;;;;;;;2.10;0.70;;;18.80;99.90;;;;;;7392852;19;20131;-86
2022/11/01 11:39:03;;;;;;;1.63;0.73;;;18.80;99.90;;;;;;7389968;19;20142;-81
2022/11/01 11:41:35;;;;;;;1.13;0.63;;;18.80;99.90;;;;;;7391266;19;20130;-84
2022/11/01 11:44:00;;;;;;;0.60;0.60;;;18.90;99.90;;;;;;7388221;19;20167;-84
2022/11/01 11:46:27;;;;;;;1.13;0.60;;;18.80;99.90;;;;;;7390275;19;20743;-83
2022/11/01 11:48:55;;;;;;;1.23;0.57;;;18.80;99.90;;;;;;7386013;19;20149;-84
2022/11/01 11:51:24;;;;;;;1.55;0.98;;;18.80;99.90;;;;;;7394168;19;20139;-83
2022/11/01 11:54:15;;;;;;;1.02;0.60;;;18.80;99.90;;;;;;7390676;19;20131;-83
2022/11/01 11:56:41;;;;;;;0.70;0.50;;;18.80;99.90;;;;;;7391508;19;20135;-82
2022/11/01 11:59:24;;;;;;;1.48;0.70;;;18.90;99.90;;;;;;7392945;19;20637;-83
2022/11/01 12:02:05;;;;;;;0.80;0.68;;;19.20;99.90;;;;;;7390622;19;20139;-83
2022/11/01 12:04:40;;;;;;;2.28;0.60;;;19.00;99.90;;;;;;7389489;19;20177;-85
2022/11/01 12:07:20;;;;;;;1.80;0.85;;;18.90;99.90;;;;;;7392134;19;20138;-84
2022/11/01 12:09:47;;;;;;;2.08;0.50;;;18.80;99.90;;;;;;7391989;19;20222;-83
2022/11/01 12:12:23;;;;;;;1.70;0.80;;;18.80;99.90;;;;;;7389596;19;20172;-83
2022/11/01 12:14:49;;;;;;;1.13;0.60;;;18.90;99.90;;;;;;7389593;19;20144;-83
2022/11/01 12:17:31;;;;;;;1.90;0.73;;;19.00;99.90;;;;;;7382931;19;20202;-82
2022/11/01 12:20:19;;;;;;;1.88;0.68;;;19.00;99.90;;;;;;7390567;19;20177;-85
2022/11/01 12:23:11;;;;;;;2.35;0.90;;;19.00;99.90;;;;;;7391497;19;20150;-82
2022/11/01 12:25:40;;;;;;;2.17;0.93;;;19.00;99.90;;;;;;7392396;19;20159;-84
2022/11/01 12:28:32;;;;;;;1.70;0.80;;;18.90;99.90;;;;;;7394217;19;20130;-80
2022/11/01 12:31:05;;;;;;;1.83;0.93;;;19.00;99.90;;;;;;7393637;19;20152;-83
2022/11/01 12:33:44;;;;;;;2.45;1.00;;;19.00;99.90;;;;;;7396895;19;20145;-85
2022/11/01 12:36:12;;;;;;;3.25;1.17;;;18.70;99.90;;;;;;7396945;19;20145;-81
2022/11/01 12:38:38;;;;;;;3.03;1.60;;;18.40;99.90;;;;;;7398561;19;20153;-82
2022/11/01 12:41:26;;;;;;;4.78;1.23;;;18.30;99.90;;;;;;7396495;19;20150;-85
2022/11/01 12:44:17;;;;;;;2.80;1.17;;;18.20;99.90;;;;;;7390988;19;20617;-85
2022/11/01 12:46:49;;;;;;;3.05;1.30;;;18.10;99.90;;;;;;7392701;19;20623;-84
2022/11/01 12:49:48;;;;;;;2.13;1.08;;;18.00;99.90;;;;;;7390615;19;20157;-79
2022/11/01 12:52:36;;;;;;;2.47;1.10;;;17.90;99.90;;;;;;7391807;19;20202;-82
2022/11/01 12:55:28;;;;;;;2.40;1.15;;;17.80;99.90;;;;;;7399559;19;20154;-85
2022/11/01 12:57:54;;;;;;;4.35;1.40;;;17.80;99.90;;;;;;7396578;19;20562;-79
2022/11/01 13:00:21;;;;;;;3.50;1.10;;;18.00;99.90;;;;;;7392331;19;20138;-85
2022/11/01 13:03:02;;;;;;;2.13;0.98;;;18.00;99.90;;;;;;7391031;19;20177;-85
2022/11/01 13:05:43;;;;;;;3.25;1.38;;;18.10;99.90;;;;;;7388706;19;20138;-83
2022/11/01 13:08:14;;;;;;;2.85;1.00;;;18.00;99.90;;;;;;7385863;19;20165;-83